createdAt,value
2022-08-08T00:00:53.449Z,16.30
2022-08-08T00:02:32.979Z,16.60
2022-08-08T00:05:12.848Z,16.60
2022-08-08T00:07:53.384Z,14.90
2022-08-08T00:10:30.532Z,14.30
2022-08-08T00:13:11.135Z,16.30
2022-08-08T00:16:10.184Z,15.10
2022-08-08T00:18:49.675Z,16.50
2022-08-08T00:21:29.638Z,16.40
2022-08-08T00:24:18.222Z,16.40
2022-08-08T00:26:56.205Z,16.40
2022-08-08T00:29:44.949Z,13.80
2022-08-08T00:32:34.892Z,16.30
2022-08-08T00:35:48.881Z,15.40
2022-08-08T00:38:51.581Z,16.30
2022-08-08T00:42:19.733Z,16.00
2022-08-08T00:46:16.200Z,15.90
2022-08-08T00:49:24.076Z,16.00
2022-08-08T00:52:28.862Z,16.00
2022-08-08T00:55:52.877Z,15.90
2022-08-08T00:59:43.951Z,15.00
2022-08-08T01:04:02.283Z,16.00
2022-08-08T01:07:20.709Z,16.00
2022-08-08T01:10:32.386Z,15.70
2022-08-08T01:13:52.642Z,15.70
2022-08-08T01:17:11.690Z,15.90
2022-08-08T01:20:30.183Z,15.90
2022-08-08T01:24:05.997Z,15.90
2022-08-08T01:27:24.229Z,15.80
2022-08-08T01:30:59.232Z,15.70
2022-08-08T01:34:13.045Z,15.80
2022-08-08T01:37:58.174Z,15.70
2022-08-08T01:40:35.711Z,15.60
2022-08-08T01:43:26.078Z,14.80
2022-08-08T01:46:27.035Z,14.40
2022-08-08T01:49:23.059Z,15.80
2022-08-08T01:52:54.788Z,15.60
2022-08-08T01:56:26.716Z,15.40
2022-08-08T01:58:39.814Z,14.50
2022-08-08T02:02:00.329Z,15.30
2022-08-08T02:04:38.370Z,14.60
2022-08-08T02:07:22.726Z,15.60
2022-08-08T02:10:29.846Z,15.60
2022-08-08T02:13:53.924Z,15.00
2022-08-08T02:16:28.341Z,15.60
2022-08-08T02:19:10.004Z,14.70
2022-08-08T02:22:28.115Z,15.60
2022-08-08T02:25:15.136Z,15.40
2022-08-08T02:27:58.877Z,15.60
2022-08-08T02:30:58.129Z,15.40
2022-08-08T02:34:07.961Z,15.40
2022-08-08T02:36:54.880Z,15.50
2022-08-08T02:39:59.677Z,14.50
2022-08-08T02:44:42.585Z,14.50
2022-08-08T02:46:53.444Z,15.30
2022-08-08T02:50:26.669Z,15.30
2022-08-08T02:53:30.631Z,15.20
2022-08-08T02:56:46.522Z,14.60
2022-08-08T03:00:29.779Z,15.20
2022-08-08T03:05:04.856Z,15.30
2022-08-08T03:08:09.999Z,15.30
2022-08-08T03:12:01.850Z,14.50
2022-08-08T03:15:57.988Z,15.30
2022-08-08T03:17:59.615Z,15.10
2022-08-08T03:20:46.800Z,15.30
2022-08-08T03:23:22.391Z,14.40
2022-08-08T03:25:55.012Z,15.10
2022-08-08T03:28:33.306Z,15.00
2022-08-08T03:31:25.092Z,15.10
2022-08-08T03:34:00.980Z,15.10
2022-08-08T03:36:31.274Z,14.20
2022-08-08T03:39:14.422Z,15.20
2022-08-08T03:42:28.116Z,15.10
2022-08-08T03:44:35.668Z,15.10
2022-08-08T03:47:19.802Z,15.10
2022-08-08T03:50:00.973Z,13.90
2022-08-08T03:52:33.969Z,15.00
2022-08-08T03:55:20.140Z,14.90
2022-08-08T03:58:31.083Z,15.00
2022-08-08T04:01:02.027Z,15.10
2022-08-08T04:03:59.879Z,15.10
2022-08-08T04:06:30.791Z,15.00
2022-08-08T04:09:06.981Z,15.00
2022-08-08T04:11:48.509Z,15.00
2022-08-08T04:14:33.923Z,14.90
2022-08-08T04:17:07.054Z,14.90
2022-08-08T04:19:44.430Z,13.70
2022-08-08T04:22:16.712Z,15.00
2022-08-08T04:24:50.281Z,11.20
2022-08-08T04:28:02.935Z,14.90
2022-08-08T04:30:18.418Z,15.10
2022-08-08T04:32:50.613Z,15.00
2022-08-08T04:35:22.868Z,15.00
2022-08-08T04:37:52.761Z,13.60
2022-08-08T04:40:24.010Z,15.00
2022-08-08T04:42:57.955Z,15.20
2022-08-08T04:45:29.811Z,14.60
2022-08-08T04:48:00.207Z,15.20
2022-08-08T04:50:37.485Z,15.30
2022-08-08T04:53:52.273Z,15.20
2022-08-08T04:55:57.038Z,15.30
2022-08-08T04:58:27.609Z,14.20
2022-08-08T05:00:58.040Z,15.50
2022-08-08T05:04:10.876Z,15.20
2022-08-08T05:06:25.177Z,15.80
2022-08-08T05:08:54.739Z,15.10
2022-08-08T05:11:26.209Z,16.00
2022-08-08T05:14:01.266Z,16.00
2022-08-08T05:16:53.005Z,16.00
2022-08-08T05:20:09.354Z,15.60
2022-08-08T05:22:10.783Z,16.10
2022-08-08T05:24:40.177Z,16.20
2022-08-08T05:27:09.418Z,16.40
2022-08-08T05:29:40.739Z,16.10
2022-08-08T05:32:12.760Z,16.50
2022-08-08T05:34:49.282Z,16.60
2022-08-08T05:37:39.221Z,15.60
2022-08-08T05:40:16.443Z,16.90
2022-08-08T05:42:51.479Z,16.20
2022-08-08T05:45:25.653Z,16.20
2022-08-08T05:48:08.869Z,16.80
2022-08-08T05:50:39.284Z,17.40
2022-08-08T05:53:54.576Z,17.60
2022-08-08T05:56:10.166Z,17.10
2022-08-08T05:58:53.831Z,17.20
2022-08-08T06:01:56.798Z,17.10
2022-08-08T06:04:24.442Z,18.20
2022-08-08T06:06:56.390Z,18.40
2022-08-08T06:09:57.963Z,17.20
2022-08-08T06:12:29.561Z,18.70
2022-08-08T06:15:03.873Z,18.70
2022-08-08T06:17:51.411Z,19.20
2022-08-08T06:20:30.602Z,19.50
2022-08-08T06:23:02.412Z,18.90
2022-08-08T06:26:36.177Z,20.00
2022-08-08T06:28:32.565Z,20.30
2022-08-08T06:31:05.432Z,20.60
2022-08-08T06:34:25.565Z,19.40
2022-08-08T06:36:58.284Z,20.90
2022-08-08T06:39:33.998Z,21.10
2022-08-08T06:42:03.655Z,19.50
2022-08-08T06:44:37.455Z,21.50
2022-08-08T06:47:11.461Z,21.70
2022-08-08T06:49:55.442Z,22.00
2022-08-08T06:52:27.757Z,22.30
2022-08-08T06:54:58.689Z,22.40
2022-08-08T06:57:29.385Z,22.70
2022-08-08T07:00:13.999Z,22.90
2022-08-08T07:02:53.858Z,22.70
2022-08-08T07:05:29.793Z,22.40
2022-08-08T07:08:10.466Z,23.70
2022-08-08T07:10:47.741Z,23.70
2022-08-08T07:13:19.875Z,23.90
2022-08-08T07:16:04.953Z,24.20
2022-08-08T07:18:51.888Z,24.40
2022-08-08T07:21:38.607Z,23.30
2022-08-08T07:24:20.497Z,23.90
2022-08-08T07:26:55.365Z,24.80
2022-08-08T07:30:00.831Z,25.80
2022-08-08T07:32:17.231Z,24.90
2022-08-08T07:35:00.601Z,26.00
2022-08-08T07:37:49.658Z,25.50
2022-08-08T07:40:29.811Z,26.30
2022-08-08T07:43:08.716Z,24.10
2022-08-08T07:46:04.885Z,25.80
2022-08-08T07:48:29.906Z,25.70
2022-08-08T07:51:04.272Z,26.30
2022-08-08T07:54:02.401Z,26.90
2022-08-08T07:56:42.075Z,26.10
2022-08-08T07:59:16.080Z,27.00
2022-08-08T08:02:35.680Z,25.90
2022-08-08T08:04:52.486Z,27.40
2022-08-08T08:07:31.879Z,26.80
2022-08-08T08:10:05.575Z,27.30
2022-08-08T08:12:43.180Z,27.40
2022-08-08T08:15:16.415Z,26.40
2022-08-08T08:17:55.505Z,26.90
2022-08-08T08:20:30.357Z,26.20
2022-08-08T08:22:59.357Z,27.40
2022-08-08T08:25:42.531Z,28.20
2022-08-08T08:28:21.556Z,27.20
2022-08-08T08:30:53.236Z,28.00
2022-08-08T08:33:22.225Z,27.40
2022-08-08T08:36:19.764Z,28.60
2022-08-08T08:38:49.603Z,28.20
2022-08-08T08:41:23.891Z,28.60
2022-08-08T08:44:13.965Z,27.20
2022-08-08T08:46:47.247Z,28.30
2022-08-08T08:49:19.903Z,28.90
2022-08-08T08:51:54.146Z,27.70
2022-08-08T08:54:26.816Z,29.30
2022-08-08T08:57:15.889Z,29.30
2022-08-08T08:59:59.780Z,29.70
2022-08-08T09:02:41.155Z,29.70
2022-08-08T09:05:14.006Z,29.50
2022-08-08T09:08:12.841Z,29.20
2022-08-08T09:10:48.705Z,29.40
2022-08-08T09:13:23.119Z,28.30
2022-08-08T09:16:03.644Z,29.70
2022-08-08T09:18:33.058Z,30.00
2022-08-08T09:21:59.388Z,29.70
2022-08-08T09:23:52.719Z,29.10
2022-08-08T09:26:39.664Z,29.90
2022-08-08T09:29:24.611Z,28.60
2022-08-08T09:32:14.319Z,30.20
2022-08-08T09:34:52.715Z,29.10
2022-08-08T09:37:58.222Z,30.30
2022-08-08T09:40:20.626Z,29.40
2022-08-08T09:42:54.992Z,30.10
2022-08-08T09:46:01.991Z,29.50
2022-08-08T09:48:27.033Z,30.40
2022-08-08T09:51:06.030Z,30.70
2022-08-08T09:53:59.784Z,29.60
2022-08-08T09:56:41.359Z,30.10
2022-08-08T10:00:02.028Z,31.40
2022-08-08T10:02:25.183Z,30.40
2022-08-08T10:05:14.571Z,31.20
2022-08-08T10:08:02.243Z,29.50
2022-08-08T10:10:36.630Z,30.90
2022-08-08T10:13:26.055Z,30.50
2022-08-08T10:16:03.841Z,30.70
2022-08-08T10:18:36.721Z,30.80
2022-08-08T10:21:23.004Z,31.20
2022-08-08T10:23:59.895Z,30.20
2022-08-08T10:26:52.141Z,29.80
2022-08-08T10:29:56.917Z,30.80
2022-08-08T10:32:36.159Z,31.40
2022-08-08T10:35:20.369Z,31.80
2022-08-08T10:38:08.013Z,31.40
2022-08-08T10:40:40.014Z,32.20
2022-08-08T10:43:10.470Z,30.90
2022-08-08T10:45:56.222Z,32.30
2022-08-08T10:48:55.783Z,32.20
2022-08-08T10:51:30.936Z,32.60
2022-08-08T10:54:02.232Z,32.50
2022-08-08T10:56:36.016Z,32.70
2022-08-08T10:59:09.583Z,33.20
2022-08-08T11:01:40.196Z,33.30
2022-08-08T11:04:12.013Z,33.30
2022-08-08T11:06:47.535Z,32.60
2022-08-08T11:09:21.693Z,32.50
2022-08-08T11:12:04.505Z,32.80
2022-08-08T11:14:35.118Z,32.40
2022-08-08T11:17:05.965Z,32.00
2022-08-08T11:19:38.453Z,32.50
2022-08-08T11:22:14.329Z,32.50
2022-08-08T11:24:45.637Z,32.80
2022-08-08T11:27:19.646Z,32.80
2022-08-08T11:30:04.326Z,32.50
2022-08-08T11:32:47.464Z,33.40
2022-08-08T11:35:28.010Z,33.60
2022-08-08T11:38:39.428Z,33.20
2022-08-08T11:40:57.750Z,33.20
2022-08-08T11:43:39.456Z,32.70
2022-08-08T11:46:13.437Z,32.50
2022-08-08T11:48:48.269Z,32.60
2022-08-08T11:51:30.192Z,33.20
2022-08-08T11:54:31.902Z,33.30
2022-08-08T11:57:14.059Z,33.10
2022-08-08T11:59:58.310Z,34.30
2022-08-08T12:02:34.274Z,34.30
2022-08-08T12:05:06.819Z,33.50
2022-08-08T12:07:49.778Z,34.20
2022-08-08T12:10:24.672Z,34.50
2022-08-08T12:13:03.457Z,34.80
2022-08-08T12:15:42.245Z,35.00
2022-08-08T12:18:18.209Z,34.40
2022-08-08T12:20:53.396Z,35.40
2022-08-08T12:23:44.049Z,35.70
2022-08-08T12:26:27.969Z,35.60
2022-08-08T12:29:21.618Z,35.80
2022-08-08T12:32:03.334Z,35.80
2022-08-08T12:34:43.703Z,36.20
2022-08-08T12:37:25.823Z,35.70
2022-08-08T12:40:22.579Z,35.10
2022-08-08T12:42:55.783Z,36.50
2022-08-08T12:45:59.156Z,36.50
2022-08-08T12:48:37.485Z,36.30
2022-08-08T12:51:11.199Z,36.40
2022-08-08T12:53:59.727Z,36.90
2022-08-08T12:56:39.230Z,36.70
2022-08-08T12:59:36.157Z,36.90
2022-08-08T13:02:08.441Z,36.80
2022-08-08T13:04:38.097Z,36.70
2022-08-08T13:07:11.819Z,37.00
2022-08-08T13:10:04.162Z,37.80
2022-08-08T13:12:40.542Z,37.50
2022-08-08T13:15:14.981Z,35.80
2022-08-08T13:18:09.367Z,36.80
2022-08-08T13:20:34.117Z,38.20
2022-08-08T13:23:30.635Z,38.20
2022-08-08T13:25:59.575Z,38.00
2022-08-08T13:28:33.167Z,37.80
2022-08-08T13:31:05.380Z,36.90
2022-08-08T13:33:42.259Z,37.00
2022-08-08T13:36:12.371Z,37.80
2022-08-08T13:38:42.455Z,38.60
2022-08-08T13:41:17.005Z,38.30
2022-08-08T13:43:49.646Z,38.20
2022-08-08T13:46:27.248Z,38.70
2022-08-08T13:49:11.556Z,38.90
2022-08-08T13:51:58.171Z,38.70
2022-08-08T13:54:31.347Z,38.10
2022-08-08T13:57:11.124Z,38.30
2022-08-08T13:59:48.096Z,37.60
2022-08-08T14:02:30.893Z,38.80
2022-08-08T14:05:09.112Z,38.80
2022-08-08T14:07:52.312Z,38.50
2022-08-08T14:10:33.463Z,39.20
2022-08-08T14:13:31.213Z,39.70
2022-08-08T14:16:12.818Z,39.40
2022-08-08T14:18:58.221Z,38.70
2022-08-08T14:21:51.924Z,39.80
2022-08-08T14:24:32.207Z,38.80
2022-08-08T14:27:02.003Z,39.70
2022-08-08T14:29:39.442Z,40.20
2022-08-08T14:32:17.060Z,39.70
2022-08-08T14:34:57.725Z,40.20
2022-08-08T14:37:27.823Z,39.40
2022-08-08T14:40:06.593Z,40.00
2022-08-08T14:42:54.664Z,40.20
2022-08-08T14:45:33.710Z,40.20
2022-08-08T14:48:17.696Z,40.30
2022-08-08T14:51:06.534Z,40.00
2022-08-08T14:53:55.479Z,40.10
2022-08-08T14:56:26.282Z,39.20
2022-08-08T14:58:55.246Z,40.40
2022-08-08T15:01:37.582Z,39.60
2022-08-08T15:04:13.180Z,39.10
2022-08-08T15:06:44.479Z,39.50
2022-08-08T15:09:14.249Z,39.60
2022-08-08T15:11:46.579Z,38.90
2022-08-08T15:14:26.530Z,36.70
2022-08-08T15:16:57.091Z,37.80
2022-08-08T15:19:28.949Z,36.30
2022-08-08T15:21:59.333Z,37.90
2022-08-08T15:24:31.079Z,38.50
2022-08-08T15:27:04.045Z,38.10
2022-08-08T15:29:49.734Z,36.60
2022-08-08T15:32:22.582Z,35.50
2022-08-08T15:34:51.700Z,35.30
2022-08-08T15:37:21.815Z,35.80
2022-08-08T15:39:52.217Z,35.50
2022-08-08T15:42:33.022Z,36.10
2022-08-08T15:45:11.178Z,36.30
2022-08-08T15:48:05.321Z,36.20
2022-08-08T15:50:48.295Z,35.60
2022-08-08T15:53:24.758Z,36.70
2022-08-08T15:55:54.633Z,37.00
2022-08-08T15:58:28.146Z,35.20
2022-08-08T16:01:00.321Z,35.60
2022-08-08T16:03:30.033Z,36.20
2022-08-08T16:06:02.152Z,35.10
2022-08-08T16:08:32.441Z,36.70
2022-08-08T16:13:15.356Z,36.60
2022-08-08T16:13:53.241Z,36.00
2022-08-08T16:16:22.318Z,36.80
2022-08-08T16:18:56.958Z,36.60
2022-08-08T16:21:29.564Z,36.30
2022-08-08T16:24:02.014Z,35.50
2022-08-08T16:26:35.316Z,35.70
2022-08-08T16:29:09.334Z,34.50
2022-08-08T16:31:48.374Z,35.70
2022-08-08T16:34:24.880Z,35.40
2022-08-08T16:36:53.664Z,35.10
2022-08-08T16:39:49.102Z,35.30
2022-08-08T16:42:17.956Z,35.30
2022-08-08T16:44:54.398Z,35.50
2022-08-08T16:47:40.307Z,35.60
2022-08-08T16:50:15.200Z,34.80
2022-08-08T16:55:06.674Z,34.60
2022-08-08T16:55:55.451Z,34.70
2022-08-08T16:58:32.689Z,35.50
2022-08-08T17:01:05.860Z,35.30
2022-08-08T17:03:58.054Z,35.70
2022-08-08T17:06:39.930Z,35.40
2022-08-08T17:09:14.823Z,35.10
2022-08-08T17:11:48.730Z,35.10
2022-08-08T17:14:27.423Z,35.10
2022-08-08T17:17:03.717Z,34.10
2022-08-08T17:19:41.058Z,33.10
2022-08-08T17:22:10.726Z,32.60
2022-08-08T17:24:41.225Z,31.70
2022-08-08T17:27:11.349Z,31.70
2022-08-08T17:29:43.438Z,30.50
2022-08-08T17:32:28.957Z,29.50
2022-08-08T17:35:53.605Z,29.50
2022-08-08T17:37:53.388Z,28.10
2022-08-08T17:40:22.799Z,29.10
2022-08-08T17:42:53.487Z,29.20
2022-08-08T17:45:24.323Z,29.80
2022-08-08T17:47:54.856Z,29.70
2022-08-08T17:50:24.993Z,29.60
2022-08-08T17:52:54.038Z,29.60
2022-08-08T17:56:06.192Z,29.40
2022-08-08T17:58:17.867Z,29.30
2022-08-08T18:00:56.115Z,29.10
2022-08-08T18:03:25.849Z,29.10
2022-08-08T18:05:54.511Z,29.10
2022-08-08T18:08:25.239Z,29.00
2022-08-08T18:11:11.893Z,28.90
2022-08-08T18:13:46.343Z,27.10
2022-08-08T18:16:20.674Z,28.50
2022-08-08T18:18:56.056Z,27.20
2022-08-08T18:21:59.522Z,27.80
2022-08-08T18:24:21.439Z,27.00
2022-08-08T18:26:54.542Z,26.60
2022-08-08T18:29:33.178Z,27.00
2022-08-08T18:32:05.560Z,24.60
2022-08-08T18:34:40.261Z,26.40
2022-08-08T18:37:10.237Z,26.40
2022-08-08T18:39:58.696Z,25.80
2022-08-08T18:42:27.165Z,25.80
2022-08-08T18:44:57.596Z,25.60
2022-08-08T18:47:27.782Z,24.40
2022-08-08T18:50:00.094Z,25.40
2022-08-08T18:52:33.908Z,25.20
2022-08-08T18:55:10.405Z,25.00
2022-08-08T18:57:45.167Z,24.70
2022-08-08T19:00:20.601Z,24.60
2022-08-08T19:02:57.114Z,24.50
2022-08-08T19:05:38.454Z,24.30
2022-08-08T19:08:25.175Z,24.10
2022-08-08T19:10:59.511Z,24.00
2022-08-08T19:13:53.388Z,24.00
2022-08-08T19:16:20.611Z,23.50
2022-08-08T19:19:00.068Z,23.60
2022-08-08T19:21:33.677Z,23.50
2022-08-08T19:24:39.385Z,23.40
2022-08-08T19:27:08.846Z,23.00
2022-08-08T19:29:42.532Z,23.20
2022-08-08T19:32:21.691Z,23.10
2022-08-08T19:34:53.117Z,23.00
2022-08-08T19:37:42.300Z,23.00
2022-08-08T19:40:16.462Z,22.80
2022-08-08T19:42:46.122Z,22.60
2022-08-08T19:45:59.060Z,21.80
2022-08-08T19:48:28.071Z,22.40
2022-08-08T19:50:56.173Z,22.30
2022-08-08T19:53:53.673Z,22.20
2022-08-08T19:56:13.553Z,22.10
2022-08-08T19:58:42.428Z,22.00
2022-08-08T20:01:25.751Z,21.90
2022-08-08T20:04:03.571Z,21.70
2022-08-08T20:06:32.344Z,21.80
2022-08-08T20:09:04.541Z,21.20
2022-08-08T20:11:43.020Z,21.70
2022-08-08T20:14:33.763Z,21.70
2022-08-08T20:17:00.921Z,21.10
2022-08-08T20:19:34.796Z,21.30
2022-08-08T20:22:13.276Z,19.10
2022-08-08T20:24:49.989Z,21.00
2022-08-08T20:27:21.103Z,21.00
2022-08-08T20:30:00.477Z,21.00
2022-08-08T20:32:31.835Z,20.90
2022-08-08T20:35:03.344Z,20.80
2022-08-08T20:37:46.688Z,20.80
2022-08-08T20:40:38.779Z,20.70
2022-08-08T20:43:16.327Z,20.40
2022-08-08T20:45:58.226Z,20.40
2022-08-08T20:48:32.488Z,18.40
2022-08-08T20:51:07.351Z,20.40
2022-08-08T20:53:57.865Z,20.40
2022-08-08T20:56:35.633Z,20.20
2022-08-08T20:59:09.089Z,19.00
2022-08-08T21:02:05.436Z,20.20
2022-08-08T21:04:27.909Z,20.10
2022-08-08T21:06:58.336Z,20.20
2022-08-08T21:09:31.385Z,19.90
2022-08-08T21:12:03.482Z,20.30
2022-08-08T21:14:33.611Z,20.20
2022-08-08T21:17:06.343Z,20.10
2022-08-08T21:19:45.464Z,20.20
2022-08-08T21:22:17.109Z,18.80
2022-08-08T21:24:52.642Z,20.00
2022-08-08T21:28:06.027Z,19.90
2022-08-08T21:30:19.381Z,19.80
2022-08-08T21:32:52.028Z,19.00
2022-08-08T21:36:19.066Z,19.80
2022-08-08T21:38:17.882Z,19.70
2022-08-08T21:40:55.888Z,19.80
2022-08-08T21:43:30.907Z,19.70
2022-08-08T21:48:05.106Z,19.60
2022-08-08T21:48:53.334Z,19.30
2022-08-08T21:54:31.288Z,19.50
2022-08-08T21:54:51.779Z,19.40
2022-08-08T21:57:06.890Z,19.40
2022-08-08T21:59:44.223Z,19.40
2022-08-08T22:02:24.282Z,19.50
2022-08-08T22:04:56.008Z,19.40
2022-08-08T22:07:34.803Z,18.70
2022-08-08T22:10:28.271Z,18.80
2022-08-08T22:13:19.011Z,19.10
2022-08-08T22:15:59.135Z,16.30
2022-08-08T22:18:31.721Z,18.20
2022-08-08T22:21:13.726Z,18.80
2022-08-08T22:23:50.762Z,18.30
2022-08-08T22:26:29.091Z,17.40
2022-08-08T22:29:14.787Z,19.10
2022-08-08T22:32:01.398Z,19.10
2022-08-08T22:34:32.898Z,19.00
2022-08-08T22:37:01.782Z,17.30
2022-08-08T22:39:39.308Z,18.80
2022-08-08T22:42:27.546Z,18.70
2022-08-08T22:45:00.888Z,18.60
2022-08-08T22:47:38.369Z,18.70
2022-08-08T22:50:27.327Z,18.70
2022-08-08T22:54:28.438Z,18.20
2022-08-08T22:55:57.890Z,17.10
2022-08-08T22:58:33.173Z,17.30
2022-08-08T23:02:00.764Z,18.50
2022-08-08T23:03:55.175Z,18.40
2022-08-08T23:06:25.417Z,18.40
2022-08-08T23:08:58.547Z,18.30
2022-08-08T23:11:31.079Z,17.60
2022-08-08T23:14:21.439Z,17.70
2022-08-08T23:16:59.179Z,16.10
2022-08-08T23:19:30.813Z,18.30
2022-08-08T23:22:04.580Z,17.90
2022-08-08T23:24:36.381Z,18.20
2022-08-08T23:27:06.620Z,16.90
2022-08-08T23:29:38.299Z,16.60
2022-08-08T23:32:10.281Z,18.20
2022-08-08T23:34:49.586Z,18.20
2022-08-08T23:37:54.266Z,18.10
2022-08-08T23:40:18.479Z,18.10
2022-08-08T23:42:51.309Z,18.20
2022-08-08T23:49:00.799Z,18.10
2022-08-08T23:49:07.122Z,17.10
2022-08-08T23:50:59.639Z,16.00
2022-08-08T23:53:56.063Z,16.50
2022-08-08T23:56:23.868Z,17.50
2022-08-08T23:59:02.208Z,17.90
